Time;durP1;ratioP1;P1;durP2;ratioP2;P2;SDS_P1;SDS_P2;PMS_P1;PMS_P2;Temp;Humidity;BMP_temperature;BMP_pressure;BME280_temperature;BME280_humidity;BME280_pressure;Samples;Min_cycle;Max_cycle;Signal;HPM_P1;HPM_P2
2022/06/03 13:20:06;;;;;;;171.03;160.23;;;32.10;78.00;;;;;;5077533;28;20975;-76
2022/06/03 13:22:47;;;;;;;470.20;449.13;;;31.90;78.70;;;;;;5055072;28;20408;-76
2022/06/03 13:28:07;;;;;;;10.80;6.20;;;31.80;79.20;;;;;;5080863;28;20561;-77
2022/06/03 13:30:37;;;;;;;17.57;8.17;;;31.80;79.50;;;;;;5078089;28;20932;-78
2022/06/03 13:33:19;;;;;;;13.93;7.10;;;31.80;81.20;;;;;;5074333;28;20502;-75
2022/06/03 13:36:04;;;;;;;14.23;6.77;;;31.70;80.30;;;;;;5079510;28;20425;-76
2022/06/03 13:38:44;;;;;;;13.30;6.10;;;31.20;78.90;;;;;;5077755;28;20457;-78
2022/06/03 13:44:17;;;;;;;21.40;9.00;;;30.80;79.20;;;;;;5094684;28;20410;-77
2022/06/03 13:46:49;;;;;;;169.77;161.03;;;30.60;81.20;;;;;;5077246;28;20451;-78
2022/06/03 13:49:27;;;;;;;456.20;433.87;;;30.20;80.00;;;;;;5081610;28;20938;-77
2022/06/03 13:52:01;;;;;;;178.37;169.63;;;30.00;80.90;;;;;;5072489;28;20424;-78
2022/06/03 13:54:50;;;;;;;104.60;98.77;;;29.90;84.80;;;;;;5083506;28;20987;-76
2022/06/03 13:57:21;;;;;;;27.23;24.97;;;29.80;82.60;;;;;;5074658;28;20446;-77
2022/06/03 13:59:47;;;;;;;14.70;7.73;;;29.40;82.50;;;;;;5070777;28;20449;-77
2022/06/03 14:02:33;;;;;;;19.87;8.97;;;29.30;83.60;;;;;;5077900;28;20445;-76
2022/06/03 14:05:03;;;;;;;31.23;10.67;;;29.20;84.60;;;;;;5065689;28;20420;-77
2022/06/03 14:07:36;;;;;;;15.67;7.53;;;28.90;84.80;;;;;;5077237;28;20944;-76
2022/06/03 14:10:16;;;;;;;18.13;8.10;;;28.70;87.60;;;;;;5071999;28;20448;-77
2022/06/03 14:13:18;;;;;;;17.83;8.30;;;28.70;88.40;;;;;;5076401;28;20950;-77
2022/06/03 14:16:06;;;;;;;22.13;7.93;;;28.40;90.70;;;;;;5065278;28;20450;-77
2022/06/03 14:18:50;;;;;;;19.17;8.23;;;28.20;90.70;;;;;;5080976;28;20975;-75
2022/06/03 14:21:46;;;;;;;13.23;6.93;;;28.30;90.60;;;;;;5066574;28;20830;-76
2022/06/03 14:24:25;;;;;;;10.80;6.90;;;28.20;90.40;;;;;;5068218;28;20424;-76
2022/06/03 14:27:04;;;;;;;10.80;6.33;;;28.10;91.30;;;;;;5065106;28;20882;-77
2022/06/03 14:29:43;;;;;;;12.73;6.10;;;28.00;91.90;;;;;;5077765;28;20509;-77
2022/06/03 14:32:18;;;;;;;17.20;8.20;;;27.80;91.90;;;;;;5071588;28;20438;-77
2022/06/03 14:35:05;;;;;;;18.70;8.23;;;27.40;91.60;;;;;;5074217;28;20484;-76
2022/06/03 14:37:50;;;;;;;16.37;7.17;;;26.80;92.30;;;;;;5078884;28;20427;-76
2022/06/03 14:40:24;;;;;;;13.83;6.53;;;26.20;93.80;;;;;;5061738;28;20837;-76
2022/06/03 14:42:52;;;;;;;19.93;8.27;;;25.90;94.70;;;;;;5066344;28;20803;-78
2022/06/03 14:45:20;;;;;;;19.67;9.20;;;25.80;95.00;;;;;;5070613;28;20500;-77
2022/06/03 14:47:56;;;;;;;15.57;7.20;;;25.60;95.50;;;;;;5068542;28;20475;-78
2022/06/03 14:50:33;;;;;;;18.40;7.87;;;25.60;96.80;;;;;;5064949;28;20460;-78
2022/06/03 14:53:19;;;;;;;12.53;6.97;;;25.60;98.00;;;;;;5066321;28;20439;-77
2022/06/03 14:55:54;;;;;;;11.77;6.97;;;25.50;99.30;;;;;;5063893;28;20540;-76
2022/06/03 14:58:31;;;;;;;10.13;5.93;;;25.20;99.90;;;;;;5063775;28;20450;-77
2022/06/03 15:01:00;;;;;;;21.07;9.17;;;24.90;99.90;;;;;;5046766;28;20430;-77
2022/06/03 15:03:33;;;;;;;17.13;7.10;;;24.70;99.90;;;;;;5087820;28;20432;-77
2022/06/03 15:06:02;;;;;;;23.53;9.73;;;24.60;99.90;;;;;;5058463;28;20497;-77
2022/06/03 15:08:39;;;;;;;13.80;7.50;;;24.40;99.90;;;;;;5062089;28;20432;-77
2022/06/03 15:11:16;;;;;;;20.43;8.90;;;24.50;99.90;;;;;;5064653;28;20975;-78
2022/06/03 15:13:47;;;;;;;13.60;6.83;;;24.40;99.90;;;;;;5063962;28;20430;-77
2022/06/03 15:16:14;;;;;;;26.53;10.60;;;24.50;99.90;;;;;;5059689;28;21087;-77
2022/06/03 15:18:42;;;;;;;18.07;8.13;;;24.40;99.90;;;;;;5065413;28;20971;-78
2022/06/03 15:21:23;;;;;;;12.07;7.30;;;24.40;99.90;;;;;;5059617;28;20424;-77
2022/06/03 15:23:57;;;;;;;18.70;9.03;;;24.20;99.90;;;;;;5053023;28;20429;-78
2022/06/03 15:26:27;;;;;;;18.00;8.07;;;24.00;99.90;;;;;;5057754;28;20476;-77
2022/06/03 15:28:57;;;;;;;12.50;6.67;;;23.90;99.90;;;;;;5063341;28;20468;-77
2022/06/03 15:31:27;;;;;;;19.83;8.03;;;23.80;99.90;;;;;;5059494;28;20503;-78
2022/06/03 15:34:02;;;;;;;16.63;8.17;;;23.70;99.90;;;;;;5064337;28;20507;-77
2022/06/03 15:36:38;;;;;;;21.37;9.93;;;23.80;99.90;;;;;;5061792;28;20446;-77
2022/06/03 15:39:34;;;;;;;21.93;10.70;;;23.80;99.90;;;;;;5062858;28;20451;-78
2022/06/03 15:42:03;;;;;;;14.60;7.77;;;23.80;99.90;;;;;;5059207;28;20806;-78
2022/06/03 15:44:31;;;;;;;21.77;10.77;;;23.80;99.90;;;;;;5064744;28;20511;-76
2022/06/03 15:47:26;;;;;;;14.80;7.80;;;23.80;99.90;;;;;;5060041;28;20932;-78
2022/06/03 15:50:16;;;;;;;15.37;7.93;;;23.90;99.90;;;;;;5051853;28;20527;-78
2022/06/03 15:52:46;;;;;;;16.50;8.73;;;23.80;99.90;;;;;;5062998;28;20449;-77
2022/06/03 15:55:12;;;;;;;12.00;6.97;;;23.80;99.90;;;;;;5063281;28;20413;-78
2022/06/03 15:57:59;;;;;;;19.23;8.53;;;23.80;99.90;;;;;;5048684;28;20437;-77
2022/06/03 16:00:30;;;;;;;17.57;8.83;;;23.70;99.90;;;;;;5062626;28;20452;-78
2022/06/03 16:03:08;;;;;;;14.37;8.03;;;23.70;99.90;;;;;;5062809;28;20458;-77
2022/06/03 16:05:50;;;;;;;12.77;7.17;;;23.70;99.90;;;;;;5061352;28;20435;-76
2022/06/03 16:08:31;;;;;;;22.00;10.80;;;23.90;99.90;;;;;;5063837;28;20428;-77
2022/06/03 16:11:26;;;;;;;23.70;9.67;;;23.90;99.90;;;;;;5088495;28;20450;-78
2022/06/03 16:14:19;;;;;;;18.20;8.63;;;24.10;99.90;;;;;;5077820;28;20421;-75
2022/06/03 16:17:07;;;;;;;13.47;7.07;;;24.10;99.90;;;;;;5061775;28;20958;-76
2022/06/03 16:19:38;;;;;;;15.50;7.63;;;24.20;99.90;;;;;;5059755;28;20455;-78
2022/06/03 16:22:49;;;;;;;20.80;8.90;;;24.30;99.90;;;;;;5059965;28;20419;-78
2022/06/03 16:25:18;;;;;;;21.70;9.30;;;24.30;99.90;;;;;;5065983;28;20476;-76
2022/06/03 16:27:59;;;;;;;16.83;7.63;;;24.30;99.90;;;;;;5065433;28;20554;-78
2022/06/03 16:30:41;;;;;;;12.23;7.00;;;24.20;99.90;;;;;;5063492;28;20451;-78
2022/06/03 16:33:46;;;;;;;11.90;6.53;;;24.10;99.90;;;;;;5056582;28;20501;-78
2022/06/03 16:36:26;;;;;;;14.67;6.77;;;24.10;99.90;;;;;;5060936;28;20433;-78
2022/06/03 16:39:04;;;;;;;11.83;6.47;;;24.00;99.90;;;;;;5040608;28;20445;-78
2022/06/03 16:41:40;;;;;;;15.83;7.60;;;23.70;99.90;;;;;;5056847;28;20429;-78
2022/06/03 16:44:14;;;;;;;13.50;7.33;;;23.60;99.90;;;;;;5059597;28;20524;-78
2022/06/03 16:46:45;;;;;;;17.67;8.90;;;23.50;99.90;;;;;;5045296;28;20570;-78
2022/06/03 16:49:22;;;;;;;11.57;6.67;;;23.50;99.90;;;;;;5036331;28;20448;-78
2022/06/03 16:51:54;;;;;;;17.00;7.20;;;23.40;99.90;;;;;;5059462;28;20767;-78
2022/06/03 16:54:27;;;;;;;12.00;7.23;;;23.40;99.90;;;;;;5051929;28;20429;-78
2022/06/03 16:57:09;;;;;;;13.63;6.83;;;23.20;99.90;;;;;;5048478;28;20981;-78
2022/06/03 16:59:38;;;;;;;12.80;7.00;;;23.20;99.90;;;;;;5033124;28;20455;-76
2022/06/03 17:02:04;;;;;;;16.17;7.77;;;23.10;99.90;;;;;;5043266;28;20421;-78
2022/06/03 17:04:43;;;;;;;12.40;7.10;;;23.00;99.90;;;;;;5051298;28;20424;-76
2022/06/03 17:07:09;;;;;;;14.73;7.13;;;23.00;99.90;;;;;;5059427;28;20247;-77
2022/06/03 17:09:41;;;;;;;17.00;8.27;;;22.90;99.90;;;;;;5057023;28;20998;-77
2022/06/03 17:12:11;;;;;;;14.80;7.73;;;22.80;99.90;;;;;;5047881;28;20834;-76
2022/06/03 17:14:41;;;;;;;16.97;8.13;;;22.80;99.90;;;;;;5061912;28;20505;-76
2022/06/03 17:17:18;;;;;;;18.77;8.50;;;22.70;99.90;;;;;;5063059;28;20424;-79
2022/06/03 17:19:48;;;;;;;11.60;7.30;;;22.70;99.90;;;;;;5062285;28;20455;-76
2022/06/03 17:22:36;;;;;;;11.77;7.63;;;22.80;99.90;;;;;;5057389;28;20473;-76
2022/06/03 17:25:17;;;;;;;15.47;8.23;;;22.60;99.90;;;;;;5045579;28;20424;-76
2022/06/03 17:28:21;;;;;;;12.70;6.80;;;22.60;99.90;;;;;;5061563;28;20472;-77
2022/06/03 17:31:04;;;;;;;21.03;9.60;;;22.60;99.90;;;;;;5052438;28;20945;-76
2022/06/03 17:33:43;;;;;;;15.17;7.30;;;22.60;99.90;;;;;;5050455;28;20416;-77
2022/06/03 17:36:12;;;;;;;13.97;8.37;;;22.40;99.90;;;;;;5061861;28;20451;-77
2022/06/03 17:39:13;;;;;;;15.40;7.37;;;22.40;99.90;;;;;;5059828;28;20444;-77
2022/06/03 17:41:45;;;;;;;21.43;9.20;;;22.40;99.90;;;;;;5060119;28;20418;-78
2022/06/03 17:44:46;;;;;;;18.27;9.03;;;22.40;99.90;;;;;;5051527;28;20423;-78
2022/06/03 17:47:22;;;;;;;13.87;7.50;;;22.30;99.90;;;;;;5055240;28;20463;-77
2022/06/03 17:50:02;;;;;;;15.10;8.37;;;22.30;99.90;;;;;;5048852;28;20485;-77
2022/06/03 17:56:00;;;;;;;18.53;8.07;;;22.40;99.90;;;;;;5061999;28;20462;-78
2022/06/03 17:58:50;;;;;;;16.33;7.40;;;22.40;99.90;;;;;;5061777;28;20412;-76
2022/06/03 18:01:16;;;;;;;20.57;9.27;;;22.40;99.90;;;;;;5057791;28;20566;-77
2022/06/03 18:04:03;;;;;;;15.20;7.27;;;22.30;99.90;;;;;;5052549;28;20515;-78
2022/06/03 18:06:35;;;;;;;13.33;7.10;;;22.30;99.90;;;;;;5065310;28;20746;-78
2022/06/03 18:09:22;;;;;;;18.73;7.90;;;22.30;99.90;;;;;;5058374;28;20530;-78
2022/06/03 18:11:49;;;;;;;20.33;10.33;;;22.30;99.90;;;;;;5045989;28;20428;-79
2022/06/03 18:14:21;;;;;;;20.50;9.10;;;22.30;99.90;;;;;;5064644;28;20508;-77
2022/06/03 18:17:17;;;;;;;17.47;9.03;;;22.30;99.90;;;;;;5047646;28;20435;-77
2022/06/03 18:19:44;;;;;;;29.77;12.83;;;22.20;99.90;;;;;;5064797;28;20443;-76
2022/06/03 18:22:23;;;;;;;19.07;9.63;;;22.30;99.90;;;;;;5065649;28;20428;-78
2022/06/03 18:24:54;;;;;;;18.43;9.63;;;22.20;99.90;;;;;;5054469;28;20546;-77
2022/06/03 18:27:54;;;;;;;13.70;8.17;;;22.20;99.90;;;;;;5066721;28;20471;-77
2022/06/03 18:30:31;;;;;;;14.00;7.90;;;22.20;99.90;;;;;;5065444;28;20431;-78
2022/06/03 18:33:36;;;;;;;15.63;8.60;;;22.20;99.90;;;;;;5061160;28;20499;-78
2022/06/03 18:36:22;;;;;;;13.77;7.57;;;22.10;99.90;;;;;;5058778;28;20485;-76
2022/06/03 18:39:08;;;;;;;19.20;9.83;;;22.20;99.90;;;;;;5065107;28;20803;-76
2022/06/03 18:41:57;;;;;;;15.13;7.93;;;22.10;99.90;;;;;;5068442;28;20420;-76
2022/06/03 18:44:41;;;;;;;14.87;8.20;;;22.10;99.90;;;;;;5066484;28;21003;-76
2022/06/03 18:47:28;;;;;;;16.30;8.50;;;22.10;99.90;;;;;;5060891;28;20468;-78
2022/06/03 18:50:00;;;;;;;11.97;7.77;;;22.10;99.90;;;;;;5056007;28;20436;-76
2022/06/03 18:52:52;;;;;;;11.73;7.50;;;22.10;99.90;;;;;;5061644;28;20425;-76
2022/06/03 18:55:31;;;;;;;15.87;9.00;;;22.00;99.90;;;;;;5065446;28;20421;-77
2022/06/03 18:58:48;;;;;;;22.23;10.53;;;22.10;99.90;;;;;;5052799;28;20460;-76
2022/06/03 19:01:37;;;;;;;14.63;9.50;;;22.00;99.90;;;;;;5021904;28;20434;-77
2022/06/03 19:04:40;;;;;;;19.80;11.57;;;21.90;99.90;;;;;;5059151;28;20417;-77
2022/06/03 19:07:14;;;;;;;19.17;11.73;;;21.80;99.90;;;;;;5075885;28;20488;-77
2022/06/03 19:10:05;;;;;;;16.63;10.60;;;21.70;99.90;;;;;;5089625;28;20730;-76
2022/06/03 19:12:54;;;;;;;20.43;10.50;;;21.60;99.90;;;;;;5078523;28;20445;-76
2022/06/03 19:15:39;;;;;;;16.20;10.80;;;21.50;99.90;;;;;;5062511;28;20446;-76
2022/06/03 19:18:14;;;;;;;20.47;12.13;;;21.30;99.90;;;;;;5059888;28;20419;-77
2022/06/03 19:21:07;;;;;;;16.70;11.20;;;21.20;99.90;;;;;;5045501;28;20980;-76
2022/06/03 19:24:07;;;;;;;17.77;10.90;;;21.20;99.90;;;;;;5067100;28;20489;-77
2022/06/03 19:26:49;;;;;;;15.77;11.87;;;21.10;99.90;;;;;;5047635;28;20469;-77
2022/06/03 19:29:23;;;;;;;16.50;11.97;;;21.00;99.90;;;;;;5063033;28;20512;-78
2022/06/03 19:32:05;;;;;;;12.43;10.53;;;21.00;99.90;;;;;;5051555;28;20430;-76
2022/06/03 19:34:42;;;;;;;19.47;13.30;;;20.80;99.90;;;;;;5061811;28;20851;-77
2022/06/03 19:37:38;;;;;;;20.30;12.67;;;20.80;99.90;;;;;;5061637;28;20434;-79
2022/06/03 19:40:57;;;;;;;11.17;9.90;;;20.80;99.90;;;;;;5057010;28;20536;-77
2022/06/03 19:43:59;;;;;;;15.73;11.40;;;20.80;99.90;;;;;;5019609;28;20829;-76
2022/06/03 19:46:54;;;;;;;17.53;12.03;;;20.80;99.90;;;;;;5033943;28;20519;-78
2022/06/03 19:49:59;;;;;;;17.03;11.33;;;20.60;99.90;;;;;;5045027;28;20441;-78
2022/06/03 19:52:40;;;;;;;19.10;11.97;;;20.60;99.90;;;;;;5021564;28;20417;-77
2022/06/03 19:55:20;;;;;;;21.37;12.20;;;20.60;99.90;;;;;;5026296;28;20883;-77
2022/06/03 19:58:05;;;;;;;19.97;12.27;;;20.60;99.90;;;;;;5041713;28;20416;-77
2022/06/03 20:00:43;;;;;;;18.63;12.00;;;20.50;99.90;;;;;;5022769;28;20608;-78
2022/06/03 20:03:39;;;;;;;18.50;14.27;;;20.50;99.90;;;;;;5041721;28;20428;-76
2022/06/03 20:06:21;;;;;;;15.07;12.30;;;20.50;99.90;;;;;;5028960;28;20499;-77
2022/06/03 20:09:21;;;;;;;23.07;14.37;;;20.50;99.90;;;;;;5020334;28;20446;-78
2022/06/03 20:14:56;;;;;;;19.53;12.33;;;20.40;99.90;;;;;;5057326;28;20404;-78
2022/06/03 20:17:30;;;;;;;17.60;11.80;;;20.30;99.90;;;;;;5061868;28;20416;-78
2022/06/03 20:20:10;;;;;;;14.27;11.23;;;20.30;99.90;;;;;;5053605;28;21023;-77
2022/06/03 20:22:41;;;;;;;19.33;12.67;;;20.30;99.90;;;;;;5061169;28;20797;-77
2022/06/03 20:25:24;;;;;;;24.13;14.37;;;20.30;99.90;;;;;;5062494;28;20451;-78
2022/06/03 20:28:06;;;;;;;21.07;12.87;;;20.20;99.90;;;;;;5062309;28;20452;-78
2022/06/03 20:30:34;;;;;;;22.23;14.20;;;20.30;99.90;;;;;;5062461;28;20869;-77
2022/06/03 20:33:21;;;;;;;19.47;12.67;;;20.30;99.90;;;;;;5058536;28;20409;-78
2022/06/03 20:35:56;;;;;;;19.97;13.43;;;20.30;99.90;;;;;;5049399;28;20408;-77
2022/06/03 20:38:27;;;;;;;22.20;14.10;;;20.10;99.90;;;;;;5063180;28;20424;-78
2022/06/03 20:41:01;;;;;;;20.80;13.47;;;20.10;99.90;;;;;;5064640;28;20507;-77
2022/06/03 20:44:06;;;;;;;18.33;12.90;;;20.20;99.90;;;;;;5046205;28;20463;-78
2022/06/03 20:46:55;;;;;;;19.83;12.73;;;20.10;99.90;;;;;;5063344;28;20878;-78
2022/06/03 20:49:39;;;;;;;20.90;13.27;;;20.00;99.90;;;;;;5066608;28;20444;-77
2022/06/03 20:52:22;;;;;;;18.17;12.03;;;20.00;99.90;;;;;;5057869;28;20396;-78
2022/06/03 20:54:54;;;;;;;20.97;13.60;;;20.00;99.90;;;;;;5052935;28;20404;-78
2022/06/03 20:57:33;;;;;;;18.17;12.40;;;20.10;99.90;;;;;;5059522;28;20416;-77
2022/06/03 21:00:03;;;;;;;23.13;14.60;;;20.10;99.90;;;;;;5050971;28;20537;-77
2022/06/03 21:02:30;;;;;;;24.57;14.53;;;20.10;99.90;;;;;;5062162;28;20424;-78
2022/06/03 21:12:48;;;;;;;25.77;15.13;;;20.10;99.90;;;;;;5053009;28;21006;-77
2022/06/03 21:13:40;;;;;;;25.37;13.80;;;19.90;99.90;;;;;;5065362;28;20469;-78
2022/06/03 21:16:05;;;;;;;15.83;12.70;;;19.90;99.90;;;;;;5060775;28;20814;-78
2022/06/03 21:18:31;;;;;;;18.80;13.30;;;20.00;99.90;;;;;;5064553;28;20175;-77
2022/06/03 21:21:18;;;;;;;23.93;14.73;;;20.00;99.90;;;;;;5048797;28;20174;-77
2022/06/03 21:24:14;;;;;;;17.03;12.23;;;20.00;99.90;;;;;;5065013;28;20235;-78
2022/06/03 21:26:39;;;;;;;13.33;11.83;;;19.90;99.90;;;;;;5059279;28;20492;-77
2022/06/03 21:29:05;;;;;;;15.40;12.00;;;19.90;99.90;;;;;;5063378;28;20475;-77
2022/06/03 21:31:42;;;;;;;18.00;12.47;;;19.80;99.90;;;;;;5060407;28;20206;-78
2022/06/03 21:34:24;;;;;;;17.13;13.20;;;19.90;99.90;;;;;;5056571;28;20182;-78
2022/06/03 21:37:18;;;;;;;19.33;13.20;;;19.90;99.90;;;;;;5061891;28;20412;-77
2022/06/03 21:40:07;;;;;;;13.90;12.13;;;19.90;99.90;;;;;;5059267;28;20440;-77
2022/06/03 21:42:49;;;;;;;14.37;12.17;;;19.80;99.90;;;;;;5060427;28;20485;-78
2022/06/03 21:45:20;;;;;;;17.10;11.97;;;19.90;99.90;;;;;;5056547;28;20520;-77
2022/06/03 21:47:51;;;;;;;15.50;12.20;;;19.90;99.90;;;;;;5059530;28;21038;-77
2022/06/03 21:50:42;;;;;;;17.03;13.57;;;19.90;99.90;;;;;;5065297;28;20441;-78
2022/06/03 21:53:35;;;;;;;17.27;12.30;;;19.90;99.90;;;;;;5059032;28;20412;-78
2022/06/03 21:56:12;;;;;;;17.97;11.80;;;19.80;99.90;;;;;;5072534;28;20408;-78
2022/06/03 21:58:47;;;;;;;17.90;12.80;;;19.80;99.90;;;;;;5062489;28;20468;-77
2022/06/03 22:01:15;;;;;;;17.80;12.57;;;19.80;99.90;;;;;;5064081;28;20510;-77
2022/06/03 22:03:42;;;;;;;19.03;13.50;;;19.80;99.90;;;;;;5072934;28;20481;-79
2022/06/03 22:06:08;;;;;;;21.63;13.57;;;19.80;99.90;;;;;;5091035;28;20468;-77
2022/06/03 22:08:34;;;;;;;20.07;13.30;;;19.80;99.90;;;;;;5085341;28;20991;-78
2022/06/03 22:13:48;;;;;;;13.97;10.87;;;19.70;99.90;;;;;;5057427;28;20253;-77
2022/06/03 22:16:14;;;;;;;16.10;10.83;;;19.80;99.90;;;;;;5063105;28;20538;-76
2022/06/03 22:18:39;;;;;;;21.40;12.70;;;19.70;99.90;;;;;;5069550;28;20435;-77
2022/06/03 22:21:09;;;;;;;18.40;12.43;;;19.70;99.90;;;;;;5060927;28;20423;-77
2022/06/03 22:23:38;;;;;;;19.53;12.37;;;19.70;99.90;;;;;;5069649;28;20190;-78
2022/06/03 22:26:28;;;;;;;14.00;11.17;;;19.70;99.90;;;;;;5064850;28;20483;-78
2022/06/03 22:28:58;;;;;;;13.77;11.37;;;19.70;99.90;;;;;;5058269;28;20559;-79
2022/06/03 22:31:55;;;;;;;12.47;10.33;;;19.70;99.90;;;;;;5057173;28;20976;-79
2022/06/03 22:34:30;;;;;;;14.13;9.90;;;19.60;99.90;;;;;;5063537;28;20441;-78
2022/06/03 22:40:38;;;;;;;11.17;9.37;;;19.60;99.90;;;;;;5064118;28;20960;-76
2022/06/03 22:43:13;;;;;;;13.43;9.60;;;19.50;99.90;;;;;;5058455;28;20442;-78
2022/06/03 22:45:39;;;;;;;14.50;9.63;;;19.50;99.90;;;;;;5048588;28;20434;-78
2022/06/03 22:48:05;;;;;;;17.67;10.70;;;19.50;99.90;;;;;;5060770;28;20432;-76
2022/06/03 22:50:31;;;;;;;22.80;12.57;;;19.40;99.90;;;;;;5068115;28;20289;-79
2022/06/03 22:53:01;;;;;;;14.20;10.20;;;19.40;99.90;;;;;;5064479;28;20523;-77
2022/06/03 22:55:28;;;;;;;13.47;10.50;;;19.50;99.90;;;;;;5064127;28;20549;-77
2022/06/03 22:57:54;;;;;;;12.67;9.90;;;19.50;99.90;;;;;;5055452;28;20421;-78
2022/06/03 23:00:20;;;;;;;15.20;10.07;;;19.50;99.90;;;;;;5057118;28;20442;-78
2022/06/03 23:02:45;;;;;;;22.17;12.40;;;19.40;99.90;;;;;;5063992;28;20424;-79
2022/06/03 23:05:13;;;;;;;15.17;9.97;;;19.40;99.90;;;;;;5056951;28;20178;-76
2022/06/03 23:07:39;;;;;;;14.40;10.37;;;19.40;99.90;;;;;;5054185;28;20224;-78
2022/06/03 23:10:05;;;;;;;15.57;10.30;;;19.50;99.90;;;;;;5063875;28;20444;-78
2022/06/03 23:12:31;;;;;;;20.27;11.77;;;19.40;99.90;;;;;;5067857;28;20213;-78
2022/06/03 23:14:58;;;;;;;11.80;9.70;;;19.40;99.90;;;;;;5063745;28;20424;-78
2022/06/03 23:17:27;;;;;;;14.00;10.13;;;19.40;99.90;;;;;;5061083;28;20440;-77
2022/06/03 23:19:53;;;;;;;13.23;10.07;;;19.40;99.90;;;;;;5066339;28;20462;-78
2022/06/03 23:22:20;;;;;;;14.87;10.50;;;19.40;99.90;;;;;;5058627;28;20795;-78
2022/06/03 23:24:46;;;;;;;14.00;10.30;;;19.20;99.90;;;;;;5064491;28;20173;-78
2022/06/03 23:27:13;;;;;;;16.90;11.67;;;19.30;99.90;;;;;;5062960;28;20841;-78
2022/06/03 23:29:38;;;;;;;25.00;13.03;;;19.40;99.90;;;;;;5060589;28;20531;-78
2022/06/03 23:32:05;;;;;;;16.47;12.33;;;19.20;99.90;;;;;;5064192;28;20932;-77
2022/06/03 23:34:30;;;;;;;15.00;11.47;;;19.30;99.90;;;;;;5060452;28;20179;-78
2022/06/03 23:36:56;;;;;;;14.40;10.20;;;19.20;99.90;;;;;;5051771;28;20420;-78
2022/06/03 23:39:22;;;;;;;18.67;12.30;;;19.20;99.90;;;;;;5065960;28;20734;-77
2022/06/03 23:47:20;;;;;;;15.30;11.60;;;19.10;99.90;;;;;;5056703;28;20456;-78
2022/06/03 23:49:49;;;;;;;16.33;11.00;;;19.20;99.90;;;;;;5067151;28;20445;-78
2022/06/03 23:52:16;;;;;;;20.43;12.27;;;19.20;99.90;;;;;;5059200;28;20468;-78
2022/06/03 23:54:43;;;;;;;21.47;13.50;;;19.20;99.90;;;;;;5071508;28;20641;-78
2022/06/03 23:57:09;;;;;;;20.10;12.50;;;19.20;99.90;;;;;;5061167;28;20420;-78
2022/06/03 23:59:35;;;;;;;16.10;11.50;;;19.20;99.90;;;;;;5061879;28;20820;-78
